Time;durP1;ratioP1;P1;durP2;ratioP2;P2;SDS_P1;SDS_P2;PMS_P1;PMS_P2;Temp;Humidity;BMP_temperature;BMP_pressure;BME280_temperature;BME280_humidity;BME280_pressure;Samples;Min_cycle;Max_cycle;Signal;HPM_P1;HPM_P2
2020/12/09 00:01:54;;;;;;;35.83;21.30;;;;;;;1.46;93.69;95647.94;5010812;28;20550;-74
2020/12/09 00:04:20;;;;;;;38.93;23.53;;;;;;;1.62;92.77;95650.13;5011481;28;20191;-74
2020/12/09 00:06:47;;;;;;;37.23;22.00;;;;;;;1.51;92.45;95645.56;5010907;28;20199;-73
2020/12/09 00:09:16;;;;;;;39.63;23.03;;;;;;;1.58;92.33;95644.56;5011254;28;20214;-73
2020/12/09 00:11:43;;;;;;;38.23;23.10;;;;;;;1.56;91.97;95658.69;5010898;28;20188;-74
2020/12/09 00:14:09;;;;;;;41.40;22.03;;;;;;;1.48;93.07;95653.72;5010868;28;20264;-74
2020/12/09 00:16:35;;;;;;;38.13;21.70;;;;;;;1.49;94.91;95658.69;5010418;28;20660;-76
2020/12/09 00:19:03;;;;;;;39.20;22.67;;;;;;;1.47;93.92;95657.28;5011446;28;20186;-71
2020/12/09 00:21:30;;;;;;;37.47;22.40;;;;;;;1.54;93.32;95652.91;5008355;28;20222;-74
2020/12/09 00:23:56;;;;;;;38.83;23.00;;;;;;;1.55;93.35;95652.72;5010496;28;20187;-71
2020/12/09 00:26:26;;;;;;;43.90;24.30;;;;;;;1.48;94.76;95656.28;5010884;28;20194;-72
2020/12/09 00:28:53;;;;;;;35.30;21.77;;;;;;;1.56;94.16;95659.47;5008927;28;20198;-72
2020/12/09 00:31:21;;;;;;;34.70;21.43;;;;;;;1.52;94.94;95662.63;5011484;28;20640;-71
2020/12/09 00:33:48;;;;;;;35.93;22.20;;;;;;;1.60;94.97;95663.25;5010184;28;20192;-71
2020/12/09 00:36:17;;;;;;;36.17;21.70;;;;;;;1.61;93.73;95661.47;4994396;28;20218;-72
2020/12/09 00:38:43;;;;;;;41.63;23.23;;;;;;;1.48;93.79;95664.03;5009917;28;20249;-72
2020/12/09 00:41:28;;;;;;;41.60;23.53;;;;;;;1.48;94.19;95664.84;5011117;28;20212;-72
2020/12/09 00:43:54;;;;;;;42.17;23.63;;;;;;;1.49;93.70;95668.22;4995415;28;20263;-73
2020/12/09 00:46:25;;;;;;;41.50;23.27;;;;;;;1.49;94.00;95670.78;5011407;28;20211;-73
2020/12/09 00:48:51;;;;;;;39.40;23.30;;;;;;;1.53;94.21;95667.63;5010577;28;20319;-73
2020/12/09 00:51:19;;;;;;;39.67;23.73;;;;;;;1.45;94.92;95674.78;5010756;28;20192;-73
2020/12/09 00:53:45;;;;;;;45.77;24.63;;;;;;;1.50;95.35;95670.59;5009859;28;20202;-73
2020/12/09 00:56:10;;;;;;;39.77;23.30;;;;;;;1.38;94.58;95663.63;5011160;28;20179;-73
2020/12/09 00:58:36;;;;;;;43.50;24.67;;;;;;;1.51;94.58;95664.44;5017484;28;20214;-74
2020/12/09 01:01:07;;;;;;;46.20;24.27;;;;;;;1.40;95.12;95666.78;5014326;28;20199;-73
2020/12/09 01:03:33;;;;;;;38.90;22.17;;;;;;;1.38;95.67;95671.38;5014520;28;20667;-73
2020/12/09 01:05:59;;;;;;;41.20;23.13;;;;;;;1.40;96.65;95677.13;5014064;28;20195;-73
2020/12/09 01:08:25;;;;;;;38.60;22.63;;;;;;;1.54;95.24;95683.91;5014126;28;20246;-73
2020/12/09 01:10:51;;;;;;;38.53;22.90;;;;;;;1.59;94.53;95684.09;5006015;28;20326;-72
2020/12/09 01:13:18;;;;;;;40.63;23.77;;;;;;;1.45;95.55;95685.09;5014988;28;20187;-72
2020/12/09 01:15:44;;;;;;;39.73;22.90;;;;;;;1.53;95.33;95688.28;5013063;28;20238;-72
2020/12/09 01:18:09;;;;;;;39.40;22.07;;;;;;;1.57;94.81;95686.88;5013134;28;20183;-72
2020/12/09 01:20:35;;;;;;;39.33;23.03;;;;;;;1.49;95.05;95688.88;5013094;28;20227;-75
2020/12/09 01:23:00;;;;;;;40.00;23.70;;;;;;;1.34;95.65;95689.03;5013560;28;20240;-72
2020/12/09 01:25:26;;;;;;;42.43;23.30;;;;;;;1.42;95.00;95686.28;5013629;28;20613;-72
2020/12/09 01:27:53;;;;;;;41.67;23.53;;;;;;;1.12;96.36;95685.81;5012925;28;20191;-72
2020/12/09 01:30:18;;;;;;;40.97;23.20;;;;;;;1.18;96.49;95686.81;5013896;28;20531;-72
2020/12/09 01:32:44;;;;;;;42.07;24.40;;;;;;;1.17;96.54;95677.50;5013222;28;20187;-73
2020/12/09 01:35:09;;;;;;;41.53;23.93;;;;;;;1.21;96.82;95678.69;5013898;28;20194;-72
2020/12/09 01:37:35;;;;;;;42.13;23.67;;;;;;;1.24;98.02;95686.81;5013451;28;20194;-75
2020/12/09 01:40:00;;;;;;;40.73;23.90;;;;;;;1.33;96.47;95690.03;5013092;28;20207;-72
2020/12/09 01:42:25;;;;;;;41.40;24.40;;;;;;;1.28;96.26;95689.84;5017604;28;20524;-73
2020/12/09 01:44:51;;;;;;;53.10;24.83;;;;;;;1.06;97.71;95701.28;5012898;28;20214;-73
2020/12/09 01:47:16;;;;;;;46.10;25.73;;;;;;;1.09;98.34;95717.16;5013732;28;20187;-73
2020/12/09 01:49:42;;;;;;;46.67;24.10;;;;;;;0.97;98.38;95716.13;4995810;28;20277;-72
2020/12/09 01:52:08;;;;;;;49.67;26.13;;;;;;;1.07;98.59;95713.19;5013099;28;20603;-71
2020/12/09 01:54:33;;;;;;;48.00;25.23;;;;;;;1.18;98.06;95700.50;5019765;28;20266;-72
2020/12/09 01:57:06;;;;;;;46.30;25.03;;;;;;;1.21;98.57;95701.91;5021215;28;20184;-72
2020/12/09 01:59:32;;;;;;;47.63;25.17;;;;;;;1.08;98.48;95700.09;5013508;28;20219;-72
2020/12/09 02:01:58;;;;;;;45.43;25.23;;;;;;;1.16;97.98;95696.56;5012336;28;20749;-72
2020/12/09 02:04:24;;;;;;;47.60;24.23;;;;;;;0.96;99.40;95711.16;5024023;28;20175;-72
2020/12/09 02:06:53;;;;;;;44.17;24.67;;;;;;;1.07;99.93;95713.19;5012492;28;20261;-72
2020/12/09 02:09:20;;;;;;;45.33;24.57;;;;;;;1.09;99.79;95726.69;5012326;28;20694;-71
2020/12/09 02:11:46;;;;;;;41.50;23.20;;;;;;;1.07;100.00;95724.28;5012327;28;20179;-72
2020/12/09 02:14:11;;;;;;;39.63;23.03;;;;;;;1.31;99.89;95735.09;4996128;28;20285;-71
2020/12/09 02:16:37;;;;;;;40.70;22.97;;;;;;;1.28;99.53;95738.88;5013026;28;20225;-73
2020/12/09 02:19:02;;;;;;;41.00;23.67;;;;;;;1.44;97.80;95737.72;5026539;28;20183;-71
2020/12/09 02:21:33;;;;;;;39.33;22.07;;;;;;;1.28;97.84;95744.03;5012923;28;20652;-73
2020/12/09 02:23:58;;;;;;;38.90;23.53;;;;;;;1.22;98.82;95747.38;5008145;28;20191;-72
2020/12/09 02:26:24;;;;;;;42.47;23.97;;;;;;;1.09;99.86;95757.66;5012193;28;20176;-73
2020/12/09 02:28:49;;;;;;;39.07;22.67;;;;;;;1.20;99.73;95764.84;5001821;28;20309;-71
2020/12/09 02:31:14;;;;;;;38.03;23.17;;;;;;;1.44;99.17;95766.09;5012570;28;20282;-71
2020/12/09 02:33:40;;;;;;;37.67;23.33;;;;;;;1.26;98.39;95766.66;5010879;28;20195;-71
2020/12/09 02:36:05;;;;;;;36.87;22.13;;;;;;;0.93;100.00;95763.94;5018997;28;20180;-71
2020/12/09 02:38:30;;;;;;;40.13;22.80;;;;;;;1.18;99.71;95767.59;5012901;28;20691;-72
2020/12/09 02:40:56;;;;;;;40.70;23.27;;;;;;;1.08;99.51;95758.63;5011702;28;20234;-71
2020/12/09 02:43:21;;;;;;;42.83;22.93;;;;;;;1.20;99.91;95775.94;5013094;28;20184;-70
2020/12/09 02:45:47;;;;;;;41.77;23.23;;;;;;;1.17;99.40;95767.81;4994563;28;20202;-71
2020/12/09 02:48:12;;;;;;;39.53;23.03;;;;;;;1.43;98.44;95769.66;5012788;28;20257;-70
2020/12/09 02:50:38;;;;;;;45.20;24.70;;;;;;;1.31;98.50;95771.22;5011841;28;20184;-73
2020/12/09 02:53:03;;;;;;;40.83;23.37;;;;;;;1.30;99.55;95777.38;5012675;28;20270;-70
2020/12/09 02:55:28;;;;;;;42.63;24.63;;;;;;;1.35;99.19;95775.00;5012346;28;20274;-70
2020/12/09 02:57:54;;;;;;;42.57;25.40;;;;;;;1.35;99.21;95765.47;5011659;28;20848;-70
2020/12/09 03:00:19;;;;;;;39.67;23.63;;;;;;;1.39;97.96;95766.69;5012209;28;20205;-70
2020/12/09 03:02:45;;;;;;;42.13;24.90;;;;;;;1.38;99.31;95769.47;5011046;28;20202;-71
2020/12/09 03:05:10;;;;;;;39.63;23.27;;;;;;;1.41;98.56;95774.22;5011200;28;20187;-70
2020/12/09 03:07:36;;;;;;;42.13;24.40;;;;;;;1.44;99.39;95768.69;5011431;28;20183;-73
2020/12/09 03:10:02;;;;;;;39.87;23.30;;;;;;;1.43;98.66;95774.84;5012197;28;20179;-71
2020/12/09 03:12:28;;;;;;;41.80;24.57;;;;;;;1.55;98.05;95774.09;5011515;28;20698;-71
2020/12/09 03:14:53;;;;;;;42.63;24.97;;;;;;;1.50;97.78;95773.06;5011153;28;20235;-71
2020/12/09 03:17:19;;;;;;;43.20;24.40;;;;;;;1.54;97.71;95776.84;5012059;28;20258;-71
2020/12/09 03:19:44;;;;;;;41.20;24.37;;;;;;;1.52;97.90;95782.19;5011192;28;20266;-71
2020/12/09 03:22:11;;;;;;;40.10;23.30;;;;;;;1.53;97.88;95783.00;5011325;28;20183;-71
2020/12/09 03:24:36;;;;;;;42.23;23.97;;;;;;;1.71;96.59;95780.66;5010817;28;20641;-73
2020/12/09 03:27:02;;;;;;;41.57;23.50;;;;;;;1.54;98.13;95785.41;5011543;28;20191;-71
2020/12/09 03:29:27;;;;;;;46.13;24.47;;;;;;;1.65;97.81;95768.53;5014045;28;20287;-72
2020/12/09 03:31:53;;;;;;;41.23;24.33;;;;;;;1.74;96.87;95774.28;4993712;28;20183;-71
2020/12/09 03:34:18;;;;;;;41.13;24.13;;;;;;;1.50;99.37;95788.56;5011657;28;20205;-72
2020/12/09 03:36:44;;;;;;;44.87;24.93;;;;;;;1.62;98.65;95774.88;5010093;28;20189;-72
2020/12/09 03:39:09;;;;;;;41.70;23.43;;;;;;;1.66;98.61;95775.28;5010336;28;20199;-72
2020/12/09 03:41:34;;;;;;;43.17;24.97;;;;;;;1.72;98.32;95787.44;5001560;28;20214;-74
2020/12/09 03:44:00;;;;;;;47.07;26.47;;;;;;;1.57;98.36;95789.34;5011584;28;20190;-72
2020/12/09 03:46:25;;;;;;;42.70;25.10;;;;;;;1.53;99.14;95790.75;5011369;28;20187;-72
2020/12/09 03:48:50;;;;;;;45.03;25.30;;;;;;;1.61;98.04;95793.97;5010617;28;20243;-73
2020/12/09 03:51:16;;;;;;;41.07;24.43;;;;;;;1.43;99.89;95793.72;5011157;28;20253;-74
2020/12/09 03:53:41;;;;;;;44.63;24.30;;;;;;;1.38;100.00;95780.59;5010369;28;20190;-74
2020/12/09 03:56:07;;;;;;;39.27;23.63;;;;;;;1.41;99.85;95787.13;5010649;28;20183;-73
2020/12/09 03:58:32;;;;;;;46.83;25.50;;;;;;;1.46;98.92;95777.81;5011249;28;20569;-73
2020/12/09 04:00:57;;;;;;;48.03;26.60;;;;;;;1.16;99.34;95777.34;5017250;28;20246;-74
2020/12/09 04:03:23;;;;;;;44.17;25.50;;;;;;;1.06;100.00;95771.72;5011268;28;20249;-75
2020/12/09 04:05:49;;;;;;;43.30;24.23;;;;;;;1.00;100.00;95767.34;5010265;28;20528;-72
2020/12/09 04:08:15;;;;;;;44.90;26.07;;;;;;;0.98;100.00;95776.25;5010288;28;20186;-72
2020/12/09 04:10:40;;;;;;;46.57;25.93;;;;;;;1.00;100.00;95775.09;5010365;28;20194;-75
2020/12/09 04:13:05;;;;;;;46.77;26.40;;;;;;;1.04;100.00;95778.88;5011498;28;20214;-74
2020/12/09 04:15:31;;;;;;;49.33;25.97;;;;;;;1.08;100.00;95780.06;5011275;28;20301;-74
2020/12/09 04:17:56;;;;;;;45.93;25.27;;;;;;;0.92;100.00;95780.41;4994274;28;20214;-74
2020/12/09 04:20:22;;;;;;;47.93;26.13;;;;;;;0.92;100.00;95790.72;5011359;28;20243;-74
2020/12/09 04:22:47;;;;;;;46.73;25.37;;;;;;;0.97;100.00;95790.94;5009126;28;20199;-74
2020/12/09 04:25:12;;;;;;;46.93;25.93;;;;;;;1.07;100.00;95788.78;5011385;28;20224;-73
2020/12/09 04:27:38;;;;;;;51.70;26.63;;;;;;;0.96;100.00;95794.50;5010545;28;20194;-72
2020/12/09 04:30:04;;;;;;;43.20;24.50;;;;;;;1.01;100.00;95786.97;5009402;28;20191;-71
2020/12/09 04:32:29;;;;;;;46.13;26.47;;;;;;;1.07;100.00;95793.16;5010947;28;20191;-72
2020/12/09 04:34:58;;;;;;;45.43;25.03;;;;;;;1.06;100.00;95791.59;5014149;28;20183;-74
2020/12/09 04:37:27;;;;;;;49.73;26.43;;;;;;;1.18;100.00;95792.59;5015438;28;20245;-74
2020/12/09 04:39:54;;;;;;;45.77;24.63;;;;;;;1.00;100.00;95800.88;5013287;28;20198;-74
2020/12/09 04:42:21;;;;;;;45.13;25.60;;;;;;;1.00;100.00;95803.47;5014908;28;20555;-73
2020/12/09 04:44:47;;;;;;;49.63;26.40;;;;;;;1.17;100.00;95796.97;5014297;28;20569;-73
2020/12/09 04:47:18;;;;;;;48.07;25.53;;;;;;;1.23;100.00;95797.97;5014304;28;20190;-72
2020/12/09 04:49:46;;;;;;;48.73;25.00;;;;;;;1.03;100.00;95799.69;5013105;28;20191;-71
2020/12/09 04:52:29;;;;;;;46.37;24.67;;;;;;;1.03;100.00;95804.84;5014561;28;20183;-70
2020/12/09 04:55:05;;;;;;;48.67;25.80;;;;;;;1.10;100.00;95808.25;5006888;28;20953;-71
2020/12/09 04:58:02;;;;;;;46.37;24.37;;;;;;;1.11;100.00;95815.03;5014810;28;20270;-71
2020/12/09 05:00:29;;;;;;;47.33;25.93;;;;;;;1.13;100.00;95813.03;5003488;28;20614;-72
2020/12/09 05:03:22;;;;;;;44.73;24.70;;;;;;;1.17;100.00;95809.88;5013506;28;20187;-71
2020/12/09 05:05:47;;;;;;;46.73;25.13;;;;;;;1.22;100.00;95825.59;5013752;28;20179;-72
2020/12/09 05:08:22;;;;;;;44.17;25.27;;;;;;;1.37;100.00;95822.06;5014266;28;20184;-73
2020/12/09 05:10:52;;;;;;;46.80;26.43;;;;;;;1.35;100.00;95824.84;5013602;28;20612;-73
2020/12/09 05:13:23;;;;;;;47.67;26.00;;;;;;;1.36;100.00;95829.00;5014309;28;20179;-73
2020/12/09 05:15:57;;;;;;;46.30;24.50;;;;;;;1.41;100.00;95825.84;5013250;28;20223;-73
2020/12/09 05:18:38;;;;;;;44.37;24.93;;;;;;;1.37;100.00;95830.63;5001308;28;20188;-73
2020/12/09 05:21:13;;;;;;;44.30;24.77;;;;;;;1.33;100.00;95839.75;5014159;28;20195;-73
2020/12/09 05:23:46;;;;;;;43.10;24.80;;;;;;;1.37;100.00;95843.53;5013346;28;20179;-74
2020/12/09 05:26:22;;;;;;;43.47;24.70;;;;;;;1.45;100.00;95860.63;5013144;28;20172;-74
2020/12/09 05:28:48;;;;;;;43.83;22.83;;;;;;;1.44;100.00;95851.28;5013007;28;20179;-74
2020/12/09 05:31:21;;;;;;;39.60;22.93;;;;;;;1.50;100.00;95846.16;5013907;28;20184;-71
2020/12/09 05:33:47;;;;;;;38.33;23.13;;;;;;;1.47;100.00;95846.53;5013209;28;20191;-73
2020/12/09 05:36:13;;;;;;;42.97;24.07;;;;;;;1.53;100.00;95848.34;5013655;28;20270;-73
2020/12/09 05:38:39;;;;;;;39.30;23.13;;;;;;;1.60;100.00;95838.84;5012559;28;20301;-74
2020/12/09 05:41:12;;;;;;;39.77;23.10;;;;;;;1.51;100.00;95844.34;5013069;28;20409;-72
2020/12/09 05:43:42;;;;;;;40.27;23.53;;;;;;;1.63;100.00;95843.59;5012979;28;20249;-74
2020/12/09 05:46:10;;;;;;;38.47;23.83;;;;;;;1.52;100.00;95846.75;5014113;28;20652;-73
2020/12/09 05:48:37;;;;;;;39.43;23.03;;;;;;;1.62;100.00;95839.44;5013025;28;20183;-74
2020/12/09 05:51:03;;;;;;;40.07;23.77;;;;;;;1.51;100.00;95845.16;5013179;28;20266;-73
2020/12/09 05:53:31;;;;;;;37.90;22.97;;;;;;;1.50;100.00;95845.38;5013603;28;20194;-73
2020/12/09 05:56:11;;;;;;;36.10;21.50;;;;;;;1.42;100.00;95853.25;5012684;28;20766;-73
2020/12/09 05:58:42;;;;;;;38.10;22.57;;;;;;;1.34;100.00;95848.28;5012717;28;20171;-74
2020/12/09 06:01:19;;;;;;;35.40;21.90;;;;;;;1.30;100.00;95852.22;5011086;28;20195;-73
2020/12/09 06:04:06;;;;;;;40.37;21.83;;;;;;;1.14;100.00;95859.28;5003148;28;20182;-73
2020/12/09 06:06:31;;;;;;;39.17;22.03;;;;;;;1.11;100.00;95870.00;4912698;29;20202;-73
2020/12/09 06:08:59;;;;;;;39.13;22.70;;;;;;;1.20;100.00;95868.84;4919793;29;20199;-74
2020/12/09 06:11:32;;;;;;;41.00;23.27;;;;;;;1.19;100.00;95869.03;4913419;29;20270;-74
2020/12/09 06:13:58;;;;;;;38.17;23.17;;;;;;;1.10;100.00;95867.59;4912642;29;20225;-74
2020/12/09 06:16:25;;;;;;;39.73;21.77;;;;;;;1.18;100.00;95870.00;4913272;29;20206;-73
2020/12/09 06:18:55;;;;;;;38.17;22.57;;;;;;;1.19;100.00;95864.69;4912796;29;20217;-74
2020/12/09 06:21:22;;;;;;;37.20;22.00;;;;;;;1.23;100.00;95871.03;4916690;29;20295;-74
2020/12/09 06:23:52;;;;;;;38.37;23.03;;;;;;;1.42;100.00;95877.28;4928399;29;20234;-71
2020/12/09 06:26:18;;;;;;;39.00;22.03;;;;;;;1.48;100.00;95863.63;4915636;29;20671;-70
2020/12/09 06:28:45;;;;;;;36.33;21.67;;;;;;;1.29;100.00;95873.84;4921915;29;20245;-70
2020/12/09 06:31:16;;;;;;;38.80;23.13;;;;;;;1.35;100.00;95880.81;4923974;29;20206;-70
2020/12/09 06:33:51;;;;;;;40.23;22.73;;;;;;;1.44;100.00;95884.84;4927548;29;20271;-74
2020/12/09 06:36:28;;;;;;;35.73;20.67;;;;;;;1.29;100.00;95876.41;4923251;29;20233;-73
2020/12/09 06:39:11;;;;;;;36.03;21.27;;;;;;;1.32;100.00;95876.06;4921704;29;20190;-72
2020/12/09 06:41:44;;;;;;;43.77;24.77;;;;;;;1.33;100.00;95881.03;4923691;29;20298;-76
2020/12/09 06:44:11;;;;;;;38.53;21.83;;;;;;;1.36;100.00;95882.41;4990401;28;20722;-70
2020/12/09 06:46:41;;;;;;;37.47;22.63;;;;;;;1.40;100.00;95881.84;5025891;28;20187;-77
2020/12/09 06:49:28;;;;;;;41.37;22.37;;;;;;;1.32;100.00;95882.03;5011959;28;20187;-70
2020/12/09 06:52:00;;;;;;;35.77;21.47;;;;;;;1.39;100.00;95882.84;5011725;28;20274;-70
2020/12/09 06:54:39;;;;;;;37.23;22.97;;;;;;;1.25;100.00;95889.72;5012384;28;20175;-74
2020/12/09 06:57:16;;;;;;;33.83;20.67;;;;;;;1.18;100.00;95893.25;4990142;28;20276;-74
2020/12/09 06:59:47;;;;;;;35.57;21.80;;;;;;;1.27;100.00;95902.44;5010033;28;20595;-75
2020/12/09 07:02:28;;;;;;;35.30;20.67;;;;;;;1.35;100.00;95904.06;5011455;28;20259;-73
2020/12/09 07:04:53;;;;;;;32.43;20.47;;;;;;;1.39;100.00;95903.50;5010855;28;20179;-74
2020/12/09 07:07:39;;;;;;;35.80;21.80;;;;;;;1.46;100.00;95912.06;5011818;28;20188;-77
2020/12/09 07:10:17;;;;;;;30.53;19.50;;;;;;;1.56;100.00;95914.31;5014979;28;20188;-74
2020/12/09 07:12:43;;;;;;;33.30;20.10;;;;;;;1.55;100.00;95910.13;4999613;28;20198;-74
2020/12/09 07:15:08;;;;;;;34.43;20.33;;;;;;;1.61;100.00;95917.13;5016959;28;20230;-73
2020/12/09 07:17:34;;;;;;;40.07;23.40;;;;;;;1.58;100.00;95917.47;5011803;28;20538;-74
2020/12/09 07:20:00;;;;;;;75.97;30.93;;;;;;;1.66;100.00;95927.66;5011317;28;20193;-74
2020/12/09 07:22:27;;;;;;;35.30;21.83;;;;;;;1.68;100.00;95929.06;4990027;28;20551;-75
2020/12/09 07:24:53;;;;;;;37.73;23.00;;;;;;;1.83;100.00;95933.28;5011062;28;20647;-74
2020/12/09 07:27:20;;;;;;;31.83;19.73;;;;;;;1.64;100.00;95929.63;5011553;28;20194;-74
2020/12/09 07:29:48;;;;;;;32.47;20.13;;;;;;;1.59;100.00;95929.41;5010221;28;20176;-75
2020/12/09 07:32:18;;;;;;;32.53;20.63;;;;;;;1.62;100.00;95929.81;5011362;28;20179;-76
2020/12/09 07:34:54;;;;;;;33.87;20.80;;;;;;;1.77;100.00;95937.44;5004845;28;20194;-74
2020/12/09 07:37:22;;;;;;;32.37;20.53;;;;;;;1.79;100.00;95937.22;5011101;28;20190;-74
2020/12/09 07:39:50;;;;;;;32.23;20.87;;;;;;;1.85;100.00;95942.44;5003567;28;20259;-75
2020/12/09 07:42:16;;;;;;;34.90;21.53;;;;;;;1.95;100.00;95937.69;5007738;28;20195;-76
2020/12/09 07:44:43;;;;;;;33.73;21.07;;;;;;;1.73;100.00;95943.97;5010755;28;20194;-75
2020/12/09 07:47:09;;;;;;;33.37;20.57;;;;;;;1.80;100.00;95937.03;5011354;28;20248;-75
2020/12/09 07:49:35;;;;;;;36.97;23.27;;;;;;;1.74;100.00;95942.19;5020201;28;20188;-77
2020/12/09 07:52:01;;;;;;;35.30;21.67;;;;;;;1.88;100.00;95941.25;5010543;28;20179;-74
2020/12/09 07:54:26;;;;;;;35.17;22.50;;;;;;;1.87;100.00;95944.81;5010970;28;20179;-75
2020/12/09 07:56:52;;;;;;;35.20;22.37;;;;;;;1.78;100.00;95948.56;5004443;28;20206;-75
2020/12/09 07:59:17;;;;;;;35.90;22.17;;;;;;;1.94;100.00;95954.22;5011675;28;20211;-74
2020/12/09 08:01:43;;;;;;;37.03;23.37;;;;;;;1.88;100.00;95954.97;5010564;28;20293;-74
2020/12/09 08:04:11;;;;;;;37.93;23.37;;;;;;;1.82;100.00;95957.53;5009721;28;20296;-74
2020/12/09 08:06:37;;;;;;;37.03;22.57;;;;;;;1.78;100.00;95961.50;5010313;28;20187;-78
2020/12/09 08:09:13;;;;;;;36.97;23.27;;;;;;;1.78;100.00;95958.91;5014380;28;20534;-74
2020/12/09 08:11:43;;;;;;;34.20;22.00;;;;;;;1.89;100.00;95961.75;5014570;28;20187;-79
2020/12/09 08:14:09;;;;;;;36.23;22.53;;;;;;;1.97;100.00;95965.94;5001753;28;20234;-74
2020/12/09 08:16:35;;;;;;;38.63;23.60;;;;;;;1.89;100.00;95964.34;5015255;28;20196;-74
2020/12/09 08:19:07;;;;;;;39.10;23.87;;;;;;;1.97;100.00;95968.50;5014308;28;20226;-73
2020/12/09 08:21:33;;;;;;;34.80;22.07;;;;;;;1.87;100.00;95971.47;5011933;28;20214;-74
2020/12/09 08:23:59;;;;;;;38.23;23.43;;;;;;;1.82;100.00;95975.59;5014427;28;20187;-74
2020/12/09 08:26:36;;;;;;;33.23;21.27;;;;;;;1.94;100.00;95979.25;5014765;28;20194;-77
2020/12/09 08:29:02;;;;;;;36.13;21.97;;;;;;;1.90;100.00;95976.22;5014728;28;20214;-74
2020/12/09 08:31:27;;;;;;;37.17;22.80;;;;;;;1.97;100.00;95984.00;5014577;28;20180;-76
2020/12/09 08:33:53;;;;;;;34.80;21.33;;;;;;;2.02;100.00;95979.06;4998794;28;20183;-74
2020/12/09 08:36:20;;;;;;;33.77;21.00;;;;;;;1.98;100.00;95990.78;5015228;28;20582;-74
2020/12/09 08:38:48;;;;;;;33.03;21.73;;;;;;;1.98;100.00;95991.59;5023462;28;20182;-74
2020/12/09 08:41:16;;;;;;;33.53;22.27;;;;;;;1.93;100.00;95988.78;5014901;28;20664;-73
2020/12/09 08:43:43;;;;;;;31.80;21.20;;;;;;;1.99;99.96;95990.59;5011590;28;20187;-74
2020/12/09 08:46:11;;;;;;;32.63;20.80;;;;;;;2.01;100.00;95995.56;5014813;28;20208;-74
2020/12/09 08:48:40;;;;;;;34.60;22.13;;;;;;;1.88;100.00;95996.31;5014152;28;20276;-78
2020/12/09 08:51:07;;;;;;;34.27;21.33;;;;;;;1.81;99.73;95997.25;5013986;28;20256;-74
2020/12/09 08:53:33;;;;;;;34.13;21.23;;;;;;;1.73;100.00;95995.63;5003433;28;20215;-73
2020/12/09 08:55:59;;;;;;;34.63;21.13;;;;;;;1.86;100.00;95995.69;5014195;28;20761;-74
2020/12/09 08:58:24;;;;;;;37.50;23.13;;;;;;;1.98;100.00;96001.13;5015022;28;20175;-74
2020/12/09 09:00:50;;;;;;;35.30;21.93;;;;;;;1.79;100.00;95996.66;5013572;28;20218;-74
2020/12/09 09:03:19;;;;;;;35.77;22.80;;;;;;;1.83;100.00;95993.50;5014613;28;20566;-74
2020/12/09 09:05:46;;;;;;;36.60;23.27;;;;;;;1.93;99.75;95993.16;4988244;28;20197;-74
2020/12/09 09:08:13;;;;;;;36.07;22.67;;;;;;;1.89;99.50;95994.53;5023269;28;20718;-73
2020/12/09 09:10:40;;;;;;;36.67;22.90;;;;;;;1.73;100.00;95989.69;5006763;28;20655;-78
2020/12/09 09:13:05;;;;;;;39.27;23.50;;;;;;;1.83;100.00;95995.28;4998766;28;20282;-74
2020/12/09 09:15:32;;;;;;;41.13;24.17;;;;;;;1.80;100.00;96001.63;5014134;28;20314;-73
2020/12/09 09:17:58;;;;;;;38.43;23.23;;;;;;;1.78;100.00;95995.06;5013330;28;20198;-74
2020/12/09 09:20:25;;;;;;;42.47;24.47;;;;;;;1.80;100.00;95996.47;5013199;28;20207;-74
2020/12/09 09:22:50;;;;;;;40.27;24.90;;;;;;;1.68;100.00;96000.56;5013233;28;20241;-74
2020/12/09 09:25:16;;;;;;;44.67;25.63;;;;;;;1.77;100.00;95996.84;5013657;28;20528;-74
2020/12/09 09:27:41;;;;;;;42.87;26.03;;;;;;;1.65;100.00;95998.38;5012253;28;20187;-74
2020/12/09 09:30:08;;;;;;;43.70;26.40;;;;;;;1.61;100.00;95997.97;5014635;28;20234;-74
2020/12/09 09:32:34;;;;;;;46.77;26.27;;;;;;;1.58;100.00;95993.16;5012607;28;20183;-75
2020/12/09 09:35:02;;;;;;;46.87;25.83;;;;;;;1.61;100.00;95997.97;5013154;28;20648;-74
2020/12/09 09:37:27;;;;;;;44.80;26.20;;;;;;;1.59;100.00;95994.75;5014010;28;20187;-73
2020/12/09 09:39:53;;;;;;;45.33;26.73;;;;;;;1.64;100.00;95999.34;5013904;28;20702;-74
2020/12/09 09:42:19;;;;;;;49.33;27.47;;;;;;;1.51;100.00;95996.69;5013707;28;20543;-74
2020/12/09 09:44:46;;;;;;;46.90;25.53;;;;;;;1.42;100.00;96001.22;5011394;28;20636;-74
2020/12/09 09:47:11;;;;;;;46.73;26.77;;;;;;;1.63;100.00;96000.34;5014242;28;20186;-73
2020/12/09 09:49:37;;;;;;;48.63;27.30;;;;;;;1.60;100.00;95998.16;5013504;28;20191;-79
2020/12/09 09:52:03;;;;;;;46.23;27.00;;;;;;;1.63;100.00;96001.13;5011937;28;20245;-74
2020/12/09 09:54:28;;;;;;;43.87;27.10;;;;;;;1.57;100.00;96007.06;5012270;28;20188;-74
2020/12/09 09:56:54;;;;;;;48.47;28.40;;;;;;;1.64;100.00;95999.34;5012619;28;20182;-74
2020/12/09 09:59:19;;;;;;;48.30;26.03;;;;;;;1.68;100.00;96008.31;5012976;28;20667;-74
2020/12/09 10:01:45;;;;;;;49.43;27.67;;;;;;;1.41;100.00;96004.78;5003808;28;20211;-74
2020/12/09 10:04:10;;;;;;;46.67;26.40;;;;;;;1.55;100.00;96010.84;5012862;28;20229;-74
2020/12/09 10:06:36;;;;;;;45.80;26.47;;;;;;;1.57;100.00;96014.81;5002929;28;20183;-77
2020/12/09 10:09:03;;;;;;;46.07;27.47;;;;;;;1.62;100.00;96012.44;5011498;28;20179;-73
2020/12/09 10:11:30;;;;;;;45.83;26.53;;;;;;;1.47;100.00;96003.22;5003453;28;20278;-74
2020/12/09 10:13:56;;;;;;;49.57;28.03;;;;;;;1.46;100.00;96006.78;5011923;28;20194;-74
2020/12/09 10:16:24;;;;;;;49.40;28.33;;;;;;;1.37;100.00;96010.50;4973186;28;20220;-74
2020/12/09 10:18:50;;;;;;;49.10;28.70;;;;;;;1.41;100.00;96017.69;4972881;28;20711;-74
2020/12/09 10:21:31;;;;;;;55.40;27.90;;;;;;;1.54;100.00;96006.66;4973809;28;20200;-76
2020/12/09 10:23:58;;;;;;;46.33;25.93;;;;;;;1.48;100.00;96008.19;4958793;28;20180;-74
2020/12/09 10:26:28;;;;;;;49.37;27.77;;;;;;;1.56;100.00;96007.28;4988115;28;20202;-74
2020/12/09 10:28:54;;;;;;;48.53;27.23;;;;;;;1.41;100.00;96004.78;4973221;28;20617;-73
2020/12/09 10:31:21;;;;;;;46.07;25.73;;;;;;;1.54;100.00;96001.47;4972760;28;20185;-73
2020/12/09 10:33:46;;;;;;;51.00;27.70;;;;;;;1.56;100.00;95996.94;4988438;28;20285;-74
2020/12/09 10:36:12;;;;;;;48.87;26.97;;;;;;;1.59;100.00;95999.94;4973601;28;20267;-73
2020/12/09 10:38:38;;;;;;;48.57;26.63;;;;;;;1.59;100.00;95994.75;4973049;28;20196;-77
2020/12/09 10:41:03;;;;;;;50.00;27.10;;;;;;;1.64;100.00;95994.19;4973527;28;20291;-73
2020/12/09 10:43:29;;;;;;;44.50;26.73;;;;;;;1.67;100.00;95996.41;4973465;28;20185;-74
2020/12/09 10:45:54;;;;;;;46.10;26.50;;;;;;;1.67;100.00;95994.59;4973033;28;20181;-74
2020/12/09 10:48:20;;;;;;;46.13;26.60;;;;;;;1.72;100.00;95994.06;4974070;28;20563;-74
2020/12/09 10:50:45;;;;;;;42.90;26.30;;;;;;;1.65;100.00;95994.00;4972400;28;20681;-74
2020/12/09 10:53:11;;;;;;;46.20;28.03;;;;;;;1.77;100.00;95996.84;4973308;28;20185;-73
2020/12/09 10:55:38;;;;;;;43.20;25.53;;;;;;;1.56;100.00;95999.53;4972758;28;20188;-78
2020/12/09 10:58:05;;;;;;;41.70;24.93;;;;;;;1.56;100.00;95987.38;4973368;28;20227;-73
2020/12/09 11:00:30;;;;;;;45.90;26.47;;;;;;;1.65;100.00;95990.63;4973518;28;20211;-74
2020/12/09 11:02:56;;;;;;;46.53;25.97;;;;;;;1.66;100.00;95984.47;4971292;28;20184;-74
2020/12/09 11:05:21;;;;;;;44.23;26.00;;;;;;;1.75;100.00;95972.19;4973256;28;20185;-74
2020/12/09 11:07:47;;;;;;;43.87;26.27;;;;;;;1.78;100.00;95977.78;4972462;28;20664;-74
2020/12/09 11:10:12;;;;;;;42.17;24.83;;;;;;;1.75;100.00;95977.34;4971459;28;20204;-74
2020/12/09 11:12:38;;;;;;;41.80;25.17;;;;;;;1.74;100.00;95973.19;4972415;28;20203;-78
2020/12/09 11:15:04;;;;;;;47.10;27.50;;;;;;;1.76;100.00;95976.38;4988590;28;20219;-74
2020/12/09 11:17:30;;;;;;;44.83;25.20;;;;;;;1.76;100.00;95969.44;5012370;28;20187;-74
2020/12/09 11:19:55;;;;;;;43.57;25.20;;;;;;;1.74;100.00;95973.19;5010922;28;20389;-74
2020/12/09 11:22:21;;;;;;;48.57;24.70;;;;;;;1.67;100.00;95971.34;5011614;28;20702;-74